createdAt,value
2018-09-14T00:01:25.546Z,8.83
2018-09-14T00:04:30.522Z,9.87
2018-09-14T00:07:35.794Z,9.83
2018-09-14T00:10:40.737Z,10.23
2018-09-14T00:13:45.891Z,8.43
2018-09-14T00:16:50.869Z,9.20
2018-09-14T00:19:55.889Z,10.13
2018-09-14T00:23:00.817Z,8.47
2018-09-14T00:26:05.940Z,9.90
2018-09-14T00:29:10.854Z,9.43
2018-09-14T00:32:15.781Z,9.07
2018-09-14T00:35:20.725Z,9.03
2018-09-14T00:38:25.654Z,9.27
2018-09-14T00:41:30.593Z,9.00
2018-09-14T00:44:35.540Z,7.40
2018-09-14T00:47:40.496Z,6.27
2018-09-14T00:50:45.500Z,5.47
2018-09-14T00:53:50.445Z,5.97
2018-09-14T00:56:55.393Z,6.10
2018-09-14T01:00:00.346Z,8.23
2018-09-14T01:03:05.333Z,5.77
2018-09-14T01:06:10.283Z,5.37
2018-09-14T01:09:20.969Z,6.97
2018-09-14T01:12:25.983Z,6.60
2018-09-14T01:15:30.953Z,5.73
2018-09-14T01:18:35.923Z,6.17
2018-09-14T01:21:40.909Z,5.87
2018-09-14T01:24:45.874Z,6.77
2018-09-14T01:27:50.834Z,5.33
2018-09-14T01:30:55.809Z,5.80
2018-09-14T01:34:00.749Z,6.40
2018-09-14T01:37:05.731Z,5.67
2018-09-14T01:40:10.689Z,7.07
2018-09-14T01:43:15.637Z,4.63
2018-09-14T01:46:20.589Z,6.33
2018-09-14T01:49:25.516Z,5.10
2018-09-14T01:52:30.449Z,4.60
2018-09-14T01:55:35.400Z,4.47
2018-09-14T01:58:40.330Z,4.90
2018-09-14T02:01:45.273Z,4.43
2018-09-14T02:04:50.249Z,5.83
2018-09-14T02:07:55.172Z,4.03
2018-09-14T02:11:00.105Z,3.77
2018-09-14T02:14:05.053Z,5.40
2018-09-14T02:17:09.998Z,4.13
2018-09-14T02:20:16.111Z,4.27
2018-09-14T02:23:21.085Z,3.40
2018-09-14T02:26:26.038Z,3.23
2018-09-14T02:29:30.967Z,3.30
2018-09-14T02:32:36.358Z,3.10
2018-09-14T02:35:41.285Z,5.00
2018-09-14T02:38:46.226Z,2.60
2018-09-14T02:41:51.174Z,3.07
2018-09-14T02:44:56.093Z,2.73
2018-09-14T02:48:01.099Z,2.40
2018-09-14T02:51:06.057Z,2.83
2018-09-14T02:54:11.030Z,2.70
2018-09-14T02:57:16.007Z,3.63
2018-09-14T03:00:20.932Z,2.77
2018-09-14T03:03:25.869Z,2.60
2018-09-14T03:06:30.796Z,2.37
2018-09-14T03:09:35.757Z,2.67
2018-09-14T03:12:40.697Z,2.97
2018-09-14T03:15:45.672Z,4.03
2018-09-14T03:18:50.602Z,2.63
2018-09-14T03:21:55.531Z,2.47
2018-09-14T03:25:00.470Z,2.70
2018-09-14T03:28:05.463Z,3.27
2018-09-14T03:31:10.418Z,2.30
2018-09-14T03:34:15.361Z,2.50
2018-09-14T03:37:20.284Z,4.43
2018-09-14T03:40:25.222Z,4.80
2018-09-14T03:43:30.167Z,4.00
2018-09-14T03:46:35.114Z,5.37
2018-09-14T03:49:40.052Z,4.70
2018-09-14T03:52:44.980Z,8.30
2018-09-14T03:55:49.928Z,6.47
2018-09-14T03:58:54.872Z,7.07
2018-09-14T04:01:59.813Z,6.87
2018-09-14T04:05:04.825Z,8.47
2018-09-14T04:08:09.795Z,7.80
2018-09-14T04:11:14.741Z,8.30
2018-09-14T04:14:19.669Z,7.43
2018-09-14T04:17:24.591Z,7.53
2018-09-14T04:20:29.525Z,8.63
2018-09-14T04:23:34.575Z,7.27
2018-09-14T04:26:39.421Z,7.03
2018-09-14T04:29:44.353Z,8.23
2018-09-14T04:32:49.269Z,8.13
2018-09-14T04:35:54.206Z,8.10
2018-09-14T04:38:59.156Z,8.73
2018-09-14T04:42:04.092Z,6.40
2018-09-14T04:45:09.023Z,7.77
2018-09-14T04:48:13.954Z,7.13
2018-09-14T04:51:18.939Z,6.30
2018-09-14T04:54:23.853Z,6.90
2018-09-14T04:57:28.865Z,7.20
2018-09-14T05:00:33.726Z,8.90
2018-09-14T05:03:38.681Z,8.60
2018-09-14T05:06:43.625Z,7.90
2018-09-14T05:09:48.586Z,8.20
2018-09-14T05:12:53.493Z,7.40
2018-09-14T05:15:58.414Z,7.43
2018-09-14T05:19:03.401Z,6.50
2018-09-14T05:22:08.359Z,10.20
2018-09-14T05:25:13.436Z,12.30
2018-09-14T05:28:18.354Z,9.23
2018-09-14T05:31:23.524Z,8.83
2018-09-14T05:34:28.582Z,7.47
2018-09-14T05:37:33.690Z,9.20
2018-09-14T05:40:38.641Z,7.80
2018-09-14T05:43:43.592Z,9.27
2018-09-14T05:46:48.569Z,9.80
2018-09-14T05:49:53.546Z,8.83
2018-09-14T05:52:58.534Z,10.17
2018-09-14T05:56:03.533Z,8.60
2018-09-14T05:59:08.498Z,11.90
2018-09-14T06:02:13.511Z,10.80
2018-09-14T06:05:18.525Z,11.30
2018-09-14T06:08:23.488Z,12.90
2018-09-14T06:11:28.466Z,9.37
2018-09-14T06:14:33.842Z,11.60
2018-09-14T06:17:38.817Z,9.17
2018-09-14T06:20:43.808Z,9.73
2018-09-14T06:23:48.946Z,8.07
2018-09-14T06:26:53.946Z,9.67
2018-09-14T06:29:59.129Z,11.50
2018-09-14T06:33:04.074Z,10.17
2018-09-14T06:36:09.033Z,9.60
2018-09-14T06:39:13.969Z,12.97
2018-09-14T06:42:18.934Z,10.80
2018-09-14T06:45:24.068Z,10.20
2018-09-14T06:48:28.949Z,11.67
2018-09-14T06:51:35.117Z,11.60
2018-09-14T06:54:40.070Z,12.37
2018-09-14T06:57:45.021Z,12.73
2018-09-14T07:00:50.149Z,9.73
2018-09-14T07:03:55.242Z,10.77
2018-09-14T07:07:00.219Z,11.67
2018-09-14T07:10:05.184Z,11.00
2018-09-14T07:13:10.122Z,9.90
2018-09-14T07:16:15.061Z,9.30
2018-09-14T07:19:19.993Z,10.40
2018-09-14T07:22:24.971Z,9.47
2018-09-14T07:25:29.881Z,8.60
2018-09-14T07:28:34.860Z,9.23
2018-09-14T07:31:39.910Z,9.20
2018-09-14T07:34:44.770Z,8.40
2018-09-14T07:37:49.720Z,9.10
2018-09-14T07:40:54.670Z,9.00
2018-09-14T07:43:59.624Z,8.57
2018-09-14T07:47:04.822Z,9.90
2018-09-14T07:50:09.774Z,8.43
2018-09-14T07:53:14.741Z,8.87
2018-09-14T07:56:19.788Z,7.17
2018-09-14T07:59:24.733Z,8.90
2018-09-14T08:02:29.716Z,7.60
2018-09-14T08:05:34.656Z,7.10
2018-09-14T08:08:39.665Z,7.80
2018-09-14T08:11:44.621Z,9.43
2018-09-14T08:14:49.564Z,6.90
2018-09-14T08:17:54.516Z,6.17
2018-09-14T08:20:59.505Z,7.37
2018-09-14T08:24:04.425Z,5.77
2018-09-14T08:27:09.417Z,6.70
2018-09-14T08:30:14.318Z,10.83
2018-09-14T08:33:19.252Z,4.67
2018-09-14T08:36:24.193Z,7.23
2018-09-14T08:39:29.113Z,4.37
2018-09-14T08:42:34.297Z,4.73
2018-09-14T08:45:39.245Z,5.70
2018-09-14T08:48:44.185Z,6.20
2018-09-14T08:51:49.129Z,3.83
2018-09-14T08:54:54.108Z,4.97
2018-09-14T08:57:59.329Z,4.53
2018-09-14T09:01:04.649Z,3.43
2018-09-14T09:04:10.679Z,3.80
2018-09-14T09:07:15.718Z,4.40
2018-09-14T09:10:20.689Z,2.87
2018-09-14T09:13:25.766Z,2.77
2018-09-14T09:16:30.741Z,4.13
2018-09-14T09:19:35.859Z,3.50
2018-09-14T09:22:40.825Z,3.37
2018-09-14T09:25:45.904Z,3.80
2018-09-14T09:28:50.855Z,3.60
2018-09-14T09:31:55.910Z,2.87
2018-09-14T09:35:00.880Z,2.87
2018-09-14T09:38:05.934Z,2.40
2018-09-14T09:41:10.893Z,2.10
2018-09-14T09:44:15.858Z,2.30
2018-09-14T09:47:20.869Z,3.43
2018-09-14T09:50:25.885Z,2.03
2018-09-14T09:53:30.821Z,5.37
2018-09-14T09:56:35.927Z,3.37
2018-09-14T10:03:27.183Z,2.43
2018-09-14T10:06:32.058Z,1.80
2018-09-14T10:09:36.989Z,2.97
2018-09-14T10:12:41.925Z,2.57
2018-09-14T10:15:46.858Z,2.47
2018-09-14T10:18:51.823Z,2.27
2018-09-14T10:21:56.766Z,1.70
2018-09-14T10:25:01.684Z,3.07
2018-09-14T10:28:06.653Z,2.03
2018-09-14T10:31:11.575Z,2.07
2018-09-14T10:34:16.513Z,2.43
2018-09-14T10:37:21.466Z,2.20
2018-09-14T10:40:26.436Z,3.40
2018-09-14T10:43:31.362Z,2.43
2018-09-14T10:46:36.305Z,1.83
2018-09-14T10:49:41.477Z,1.37
2018-09-14T10:52:46.533Z,2.10
2018-09-14T10:55:51.663Z,1.80
2018-09-14T10:58:56.729Z,1.40
2018-09-14T11:02:01.762Z,1.60
2018-09-14T11:05:06.900Z,1.40
2018-09-14T11:08:11.933Z,2.50
2018-09-14T11:11:16.937Z,1.40
2018-09-14T11:14:21.990Z,1.57
2018-09-14T11:17:27.911Z,1.30
2018-09-14T11:20:33.029Z,2.20
2018-09-14T11:23:38.270Z,1.93
2018-09-14T11:26:43.302Z,1.30
2018-09-14T11:29:48.322Z,2.13
2018-09-14T11:32:53.328Z,1.33
2018-09-14T11:35:58.295Z,1.90
2018-09-14T11:39:05.456Z,2.60
2018-09-14T11:42:10.437Z,2.23
2018-09-14T11:45:15.528Z,1.43
2018-09-14T11:48:20.473Z,3.47
2018-09-14T11:51:25.467Z,2.07
2018-09-14T11:54:31.189Z,1.87
2018-09-14T11:57:36.360Z,1.50
2018-09-14T12:00:41.309Z,1.20
2018-09-14T12:03:46.478Z,5.80
2018-09-14T12:06:51.488Z,4.70
2018-09-14T12:09:56.513Z,3.30
2018-09-14T12:13:01.549Z,6.30
2018-09-14T12:16:06.625Z,5.67
2018-09-14T12:19:11.634Z,5.67
2018-09-14T12:22:16.644Z,3.43
2018-09-14T12:25:21.749Z,2.90
2018-09-14T12:28:26.726Z,11.50
2018-09-14T12:31:31.656Z,5.40
2018-09-14T12:34:36.609Z,3.87
2018-09-14T12:37:41.573Z,2.27
2018-09-14T12:40:46.587Z,4.73
2018-09-14T12:43:51.565Z,11.67
2018-09-14T12:46:56.521Z,4.97
2018-09-14T12:50:01.773Z,2.87
2018-09-14T12:53:07.022Z,12.37
2018-09-14T12:56:12.071Z,9.20
2018-09-14T12:59:17.120Z,8.37
2018-09-14T13:02:22.536Z,1.67
2018-09-14T13:05:27.609Z,3.27
2018-09-14T13:08:32.626Z,2.70
2018-09-14T13:11:38.125Z,6.03
2018-09-14T13:14:43.143Z,3.87
2018-09-14T13:17:48.361Z,3.30
2018-09-14T13:20:53.518Z,4.10
2018-09-14T13:23:58.547Z,3.43
2018-09-14T13:27:03.546Z,3.43
2018-09-14T13:30:08.654Z,4.07
2018-09-14T13:33:13.682Z,2.33
2018-09-14T13:36:18.709Z,3.13
2018-09-14T13:39:24.299Z,3.40
2018-09-14T13:42:29.398Z,2.40
2018-09-14T13:45:34.406Z,4.07
2018-09-14T13:48:39.413Z,3.00
2018-09-14T13:51:44.476Z,3.27
2018-09-14T13:54:49.478Z,5.80
2018-09-14T13:57:54.578Z,4.80
2018-09-14T14:00:59.680Z,4.80
2018-09-14T14:04:04.913Z,2.00
2018-09-14T14:07:09.888Z,2.97
2018-09-14T14:10:14.945Z,1.93
2018-09-14T14:13:19.898Z,3.97
2018-09-14T14:16:24.929Z,2.73
2018-09-14T14:19:29.896Z,2.07
2018-09-14T14:22:34.878Z,2.33
2018-09-14T14:25:39.891Z,2.90
2018-09-14T14:28:44.880Z,3.00
2018-09-14T14:31:50.038Z,1.70
2018-09-14T14:34:55.042Z,2.97
2018-09-14T14:38:00.019Z,2.53
2018-09-14T14:41:05.058Z,1.90
2018-09-14T14:44:10.066Z,2.63
2018-09-14T14:47:15.127Z,2.57
2018-09-14T14:50:20.425Z,1.40
2018-09-14T14:53:26.333Z,1.37
2018-09-14T14:56:32.504Z,3.00
2018-09-14T14:59:37.579Z,2.40
2018-09-14T15:02:42.559Z,2.23
2018-09-14T15:05:47.546Z,1.40
2018-09-14T15:08:52.541Z,1.83
2018-09-14T15:11:57.509Z,2.50
2018-09-14T15:15:02.493Z,3.13
2018-09-14T15:18:07.494Z,2.00
2018-09-14T15:21:12.533Z,2.97
2018-09-14T15:24:17.516Z,1.50
2018-09-14T15:27:22.493Z,1.30
2018-09-14T15:30:27.470Z,1.77
2018-09-14T15:33:32.525Z,1.67
2018-09-14T15:36:37.637Z,1.87
2018-09-14T15:39:42.678Z,3.00
2018-09-14T15:42:48.157Z,2.57
2018-09-14T15:45:53.201Z,1.40
2018-09-14T15:48:58.310Z,3.50
2018-09-14T15:52:03.367Z,1.57
2018-09-14T15:55:08.421Z,2.50
2018-09-14T15:58:14.069Z,3.73
2018-09-14T16:01:19.385Z,2.43
2018-09-14T16:04:24.569Z,2.50
2018-09-14T16:07:29.671Z,1.87
2018-09-14T16:10:34.650Z,2.47
2018-09-14T16:13:39.659Z,1.70
2018-09-14T16:16:44.624Z,3.20
2018-09-14T16:19:49.825Z,1.73
2018-09-14T16:22:54.817Z,1.83
2018-09-14T16:25:59.770Z,2.13
2018-09-14T16:32:23.221Z,3.30
2018-09-14T16:35:28.235Z,2.13
2018-09-14T16:38:33.391Z,3.07
2018-09-14T16:41:38.593Z,2.97
2018-09-14T16:47:55.937Z,2.30
2018-09-14T16:51:00.975Z,3.73
2018-09-14T16:54:06.167Z,1.53
2018-09-14T16:57:11.168Z,3.80
2018-09-14T17:00:16.557Z,2.03
2018-09-14T17:03:21.823Z,3.27
2018-09-14T17:06:26.788Z,3.37
2018-09-14T17:09:31.919Z,2.90
2018-09-14T17:12:37.110Z,2.43
2018-09-14T17:15:42.057Z,2.80
2018-09-14T17:18:47.570Z,4.60
2018-09-14T17:21:52.686Z,2.37
2018-09-14T17:24:57.946Z,3.63
2018-09-14T17:28:03.208Z,2.07
2018-09-14T17:31:08.350Z,2.83
2018-09-14T17:34:13.394Z,1.90
2018-09-14T17:37:18.426Z,2.43
2018-09-14T17:40:23.872Z,3.30
2018-09-14T17:43:28.860Z,2.77
2018-09-14T17:46:33.863Z,3.53
2018-09-14T17:49:38.813Z,3.60
2018-09-14T17:52:43.910Z,8.33
2018-09-14T17:55:48.977Z,5.57
2018-09-14T17:58:53.917Z,4.03
2018-09-14T18:01:58.867Z,2.83
2018-09-14T18:05:04.173Z,2.90
2018-09-14T18:08:09.113Z,2.67
2018-09-14T18:11:14.429Z,6.17
2018-09-14T18:14:19.390Z,3.93
2018-09-14T18:17:24.632Z,3.50
2018-09-14T18:20:29.778Z,4.17
2018-09-14T18:23:34.861Z,6.43
2018-09-14T18:26:39.793Z,5.40
2018-09-14T18:29:45.223Z,9.27
2018-09-14T18:32:50.414Z,4.80
2018-09-14T18:35:55.477Z,2.60
2018-09-14T18:39:00.777Z,3.30
2018-09-14T18:42:05.881Z,4.37
2018-09-14T18:45:12.286Z,3.20
2018-09-14T18:48:17.402Z,2.80
2018-09-14T18:51:22.422Z,4.20
2018-09-14T18:54:27.417Z,3.77
2018-09-14T18:57:32.373Z,2.70
2018-09-14T19:00:37.731Z,2.97
2018-09-14T19:03:42.720Z,4.07
2018-09-14T19:06:47.715Z,3.97
2018-09-14T19:09:53.212Z,4.10
2018-09-14T19:12:58.189Z,4.40
2018-09-14T19:16:03.459Z,4.50
2018-09-14T19:19:08.867Z,3.87
2018-09-14T19:22:14.034Z,4.07
2018-09-14T19:25:19.313Z,3.93
2018-09-14T19:28:24.484Z,3.60
2018-09-14T19:31:29.498Z,3.60
2018-09-14T19:37:51.261Z,5.57
2018-09-14T19:40:56.601Z,4.23
2018-09-14T19:44:01.913Z,4.27
2018-09-14T19:47:07.321Z,4.57
2018-09-14T19:50:12.791Z,4.37
2018-09-14T19:53:17.914Z,4.53
2018-09-14T19:56:23.013Z,3.77
2018-09-14T19:59:28.285Z,5.87
2018-09-14T20:02:33.257Z,4.77
2018-09-14T20:05:38.521Z,4.50
2018-09-14T20:08:43.513Z,5.47
2018-09-14T20:11:48.535Z,5.03
2018-09-14T20:14:53.905Z,5.00
2018-09-14T20:17:58.862Z,4.57
2018-09-14T20:21:04.214Z,4.30
2018-09-14T20:24:09.191Z,4.90
2018-09-14T20:27:14.138Z,4.80
2018-09-14T20:30:19.091Z,5.20
2018-09-14T20:33:24.194Z,5.23
2018-09-14T20:36:29.144Z,4.93
2018-09-14T20:39:34.590Z,5.40
2018-09-14T20:42:39.577Z,4.57
2018-09-14T20:45:44.936Z,4.70
2018-09-14T20:48:49.905Z,6.60
2018-09-14T20:51:55.202Z,5.10
2018-09-14T20:55:00.192Z,5.10
2018-09-14T20:58:05.370Z,4.90
2018-09-14T21:01:10.404Z,4.93
2018-09-14T21:04:15.555Z,5.03
2018-09-14T21:07:20.618Z,4.97
2018-09-14T21:10:25.715Z,5.27
2018-09-14T21:13:30.754Z,6.40
2018-09-14T21:16:35.812Z,4.60
2018-09-14T21:19:40.856Z,5.63
2018-09-14T21:22:45.987Z,5.73
2018-09-14T21:25:50.904Z,4.90
2018-09-14T21:28:55.878Z,5.70
2018-09-14T21:32:01.225Z,5.43
2018-09-14T21:35:06.261Z,5.93
2018-09-14T21:38:11.401Z,6.77
2018-09-14T21:41:16.646Z,7.73
2018-09-14T21:44:21.893Z,5.73
2018-09-14T21:47:27.157Z,5.10
2018-09-14T21:50:32.130Z,8.73
2018-09-14T21:53:37.571Z,6.20
2018-09-14T21:56:42.827Z,5.70
2018-09-14T22:03:28.975Z,7.17
2018-09-14T22:06:34.053Z,5.90
2018-09-14T22:09:39.224Z,5.90
2018-09-14T22:12:44.757Z,5.30
2018-09-14T22:15:49.948Z,6.60
2018-09-14T22:18:55.078Z,5.87
2018-09-14T22:22:00.099Z,5.70
2018-09-14T22:25:05.290Z,5.20
2018-09-14T22:28:10.266Z,5.60
2018-09-14T22:31:15.242Z,6.13
2018-09-14T22:34:20.381Z,9.33
2018-09-14T22:37:25.391Z,7.13
2018-09-14T22:40:30.360Z,7.27
2018-09-14T22:43:35.345Z,7.50
2018-09-14T22:46:40.312Z,7.87
2018-09-14T22:49:45.261Z,7.63
2018-09-14T22:52:50.377Z,6.00
2018-09-14T22:55:55.321Z,8.00
2018-09-14T22:59:00.324Z,6.73
2018-09-14T23:02:05.385Z,6.63
2018-09-14T23:05:10.340Z,6.20
2018-09-14T23:08:15.278Z,7.53
2018-09-14T23:11:20.210Z,8.13
2018-09-14T23:14:25.165Z,6.37
2018-09-14T23:17:30.129Z,7.77
2018-09-14T23:20:35.118Z,6.70
2018-09-14T23:23:40.049Z,6.60
2018-09-14T23:26:45.080Z,6.00
2018-09-14T23:29:50.024Z,6.37
2018-09-14T23:32:55.014Z,6.90
2018-09-14T23:35:59.924Z,6.90
2018-09-14T23:39:07.293Z,6.33
2018-09-14T23:42:12.233Z,7.60
2018-09-14T23:45:17.188Z,6.80
2018-09-14T23:48:22.130Z,6.33
2018-09-14T23:51:27.077Z,6.03
2018-09-14T23:54:32.016Z,6.37
2018-09-14T23:57:36.993Z,6.23
